sensor_id;sensor_type;location;lat;lon;timestamp;P1;durP1;ratioP1;P2;durP2;ratioP2
25023;SDS011;13033;50.936;5.334;2023-04-05T00:01:32;19.30;;;10.00;;
25023;SDS011;13033;50.936;5.334;2023-04-05T00:03:58;15.70;;;9.70;;
25023;SDS011;13033;50.936;5.334;2023-04-05T00:06:28;16.05;;;9.68;;
25023;SDS011;13033;50.936;5.334;2023-04-05T00:08:54;16.98;;;9.15;;
25023;SDS011;13033;50.936;5.334;2023-04-05T00:11:21;17.35;;;9.93;;
25023;SDS011;13033;50.936;5.334;2023-04-05T00:13:47;21.08;;;9.68;;
25023;SDS011;13033;50.936;5.334;2023-04-05T00:16:14;15.93;;;9.93;;
25023;SDS011;13033;50.936;5.334;2023-04-05T00:18:40;15.23;;;9.80;;
25023;SDS011;13033;50.936;5.334;2023-04-05T00:21:14;19.13;;;9.48;;
25023;SDS011;13033;50.936;5.334;2023-04-05T00:23:40;19.48;;;9.98;;
25023;SDS011;13033;50.936;5.334;2023-04-05T00:26:09;17.33;;;10.13;;
25023;SDS011;13033;50.936;5.334;2023-04-05T00:28:35;19.73;;;10.82;;
25023;SDS011;13033;50.936;5.334;2023-04-05T00:31:01;16.95;;;9.68;;
25023;SDS011;13033;50.936;5.334;2023-04-05T00:33:27;17.92;;;10.52;;
25023;SDS011;13033;50.936;5.334;2023-04-05T00:35:53;19.15;;;10.65;;
25023;SDS011;13033;50.936;5.334;2023-04-05T00:38:19;19.90;;;10.13;;
25023;SDS011;13033;50.936;5.334;2023-04-05T00:40:44;18.60;;;9.90;;
25023;SDS011;13033;50.936;5.334;2023-04-05T00:43:10;18.70;;;10.45;;
25023;SDS011;13033;50.936;5.334;2023-04-05T00:45:36;20.88;;;10.00;;
25023;SDS011;13033;50.936;5.334;2023-04-05T00:48:02;16.98;;;9.93;;
25023;SDS011;13033;50.936;5.334;2023-04-05T00:50:28;20.05;;;10.30;;
25023;SDS011;13033;50.936;5.334;2023-04-05T00:52:55;18.48;;;9.63;;
25023;SDS011;13033;50.936;5.334;2023-04-05T00:55:22;18.73;;;9.73;;
25023;SDS011;13033;50.936;5.334;2023-04-05T00:57:49;18.02;;;9.45;;
25023;SDS011;13033;50.936;5.334;2023-04-05T01:00:15;17.15;;;9.63;;
25023;SDS011;13033;50.936;5.334;2023-04-05T01:02:43;15.18;;;8.98;;
25023;SDS011;13033;50.936;5.334;2023-04-05T01:07:58;18.58;;;9.27;;
25023;SDS011;13033;50.936;5.334;2023-04-05T01:10:34;16.00;;;9.48;;
25023;SDS011;13033;50.936;5.334;2023-04-05T01:13:03;16.08;;;9.10;;
25023;SDS011;13033;50.936;5.334;2023-04-05T01:15:30;19.17;;;9.55;;
25023;SDS011;13033;50.936;5.334;2023-04-05T01:17:56;18.95;;;9.73;;
25023;SDS011;13033;50.936;5.334;2023-04-05T01:20:26;16.05;;;9.38;;
25023;SDS011;13033;50.936;5.334;2023-04-05T01:23:00;17.30;;;9.27;;
25023;SDS011;13033;50.936;5.334;2023-04-05T01:25:48;19.70;;;9.75;;
25023;SDS011;13033;50.936;5.334;2023-04-05T01:28:34;17.15;;;9.80;;
25023;SDS011;13033;50.936;5.334;2023-04-05T01:32:20;17.80;;;10.15;;
25023;SDS011;13033;50.936;5.334;2023-04-05T01:34:39;20.90;;;10.45;;
25023;SDS011;13033;50.936;5.334;2023-04-05T01:37:28;17.50;;;10.65;;
25023;SDS011;13033;50.936;5.334;2023-04-05T01:39:56;19.42;;;10.25;;
25023;SDS011;13033;50.936;5.334;2023-04-05T01:42:24;18.08;;;10.75;;
25023;SDS011;13033;50.936;5.334;2023-04-05T01:44:51;19.85;;;9.88;;
25023;SDS011;13033;50.936;5.334;2023-04-05T01:47:18;17.95;;;10.18;;
25023;SDS011;13033;50.936;5.334;2023-04-05T01:49:44;17.45;;;10.50;;
25023;SDS011;13033;50.936;5.334;2023-04-05T01:52:10;17.98;;;10.02;;
25023;SDS011;13033;50.936;5.334;2023-04-05T01:54:36;15.82;;;9.70;;
25023;SDS011;13033;50.936;5.334;2023-04-05T01:57:01;17.02;;;9.85;;
25023;SDS011;13033;50.936;5.334;2023-04-05T01:59:28;19.70;;;10.55;;
25023;SDS011;13033;50.936;5.334;2023-04-05T02:01:53;18.50;;;10.30;;
25023;SDS011;13033;50.936;5.334;2023-04-05T02:04:19;18.23;;;10.75;;
25023;SDS011;13033;50.936;5.334;2023-04-05T02:06:45;18.83;;;9.88;;
25023;SDS011;13033;50.936;5.334;2023-04-05T02:09:10;20.13;;;10.93;;
25023;SDS011;13033;50.936;5.334;2023-04-05T02:11:36;19.40;;;9.63;;
25023;SDS011;13033;50.936;5.334;2023-04-05T02:14:02;18.60;;;10.48;;
25023;SDS011;13033;50.936;5.334;2023-04-05T02:16:28;18.58;;;9.75;;
25023;SDS011;13033;50.936;5.334;2023-04-05T02:18:57;20.08;;;9.38;;
25023;SDS011;13033;50.936;5.334;2023-04-05T02:21:23;17.75;;;10.52;;
25023;SDS011;13033;50.936;5.334;2023-04-05T02:23:53;17.08;;;9.88;;
25023;SDS011;13033;50.936;5.334;2023-04-05T02:26:19;19.25;;;10.52;;
25023;SDS011;13033;50.936;5.334;2023-04-05T02:28:45;17.27;;;9.43;;
25023;SDS011;13033;50.936;5.334;2023-04-05T02:31:11;19.02;;;10.43;;
25023;SDS011;13033;50.936;5.334;2023-04-05T02:33:38;16.55;;;9.75;;
25023;SDS011;13033;50.936;5.334;2023-04-05T02:36:04;20.50;;;10.10;;
25023;SDS011;13033;50.936;5.334;2023-04-05T02:38:31;20.30;;;10.32;;
25023;SDS011;13033;50.936;5.334;2023-04-05T02:40:58;20.20;;;11.02;;
25023;SDS011;13033;50.936;5.334;2023-04-05T02:43:23;17.48;;;11.07;;
25023;SDS011;13033;50.936;5.334;2023-04-05T02:45:50;19.20;;;10.88;;
25023;SDS011;13033;50.936;5.334;2023-04-05T02:48:15;22.95;;;11.23;;
25023;SDS011;13033;50.936;5.334;2023-04-05T02:50:41;22.67;;;11.75;;
25023;SDS011;13033;50.936;5.334;2023-04-05T02:53:12;21.08;;;11.60;;
25023;SDS011;13033;50.936;5.334;2023-04-05T02:55:38;18.05;;;11.07;;
25023;SDS011;13033;50.936;5.334;2023-04-05T02:58:06;20.08;;;12.00;;
25023;SDS011;13033;50.936;5.334;2023-04-05T03:00:32;20.35;;;11.40;;
25023;SDS011;13033;50.936;5.334;2023-04-05T03:02:57;22.45;;;11.45;;
25023;SDS011;13033;50.936;5.334;2023-04-05T03:05:23;27.20;;;12.65;;
25023;SDS011;13033;50.936;5.334;2023-04-05T03:07:49;22.23;;;12.35;;
25023;SDS011;13033;50.936;5.334;2023-04-05T03:10:16;30.10;;;13.57;;
25023;SDS011;13033;50.936;5.334;2023-04-05T03:12:43;23.95;;;12.52;;
25023;SDS011;13033;50.936;5.334;2023-04-05T03:15:11;23.13;;;12.73;;
25023;SDS011;13033;50.936;5.334;2023-04-05T03:17:37;21.88;;;11.95;;
25023;SDS011;13033;50.936;5.334;2023-04-05T03:20:03;20.90;;;12.13;;
25023;SDS011;13033;50.936;5.334;2023-04-05T03:22:31;18.85;;;11.45;;
25023;SDS011;13033;50.936;5.334;2023-04-05T03:24:57;21.92;;;12.20;;
25023;SDS011;13033;50.936;5.334;2023-04-05T03:27:23;23.88;;;12.07;;
25023;SDS011;13033;50.936;5.334;2023-04-05T03:29:50;25.27;;;12.73;;
25023;SDS011;13033;50.936;5.334;2023-04-05T03:32:15;26.08;;;12.18;;
25023;SDS011;13033;50.936;5.334;2023-04-05T03:34:42;20.02;;;12.00;;
25023;SDS011;13033;50.936;5.334;2023-04-05T03:37:08;22.27;;;12.30;;
25023;SDS011;13033;50.936;5.334;2023-04-05T03:39:34;22.45;;;12.93;;
25023;SDS011;13033;50.936;5.334;2023-04-05T03:42:00;23.55;;;12.93;;
25023;SDS011;13033;50.936;5.334;2023-04-05T03:44:26;21.55;;;12.35;;
25023;SDS011;13033;50.936;5.334;2023-04-05T03:46:51;23.90;;;12.77;;
25023;SDS011;13033;50.936;5.334;2023-04-05T03:49:17;24.23;;;13.07;;
25023;SDS011;13033;50.936;5.334;2023-04-05T03:51:43;25.17;;;13.00;;
25023;SDS011;13033;50.936;5.334;2023-04-05T03:54:10;24.55;;;12.25;;
25023;SDS011;13033;50.936;5.334;2023-04-05T03:56:37;23.13;;;12.30;;
25023;SDS011;13033;50.936;5.334;2023-04-05T03:59:03;24.15;;;12.57;;
25023;SDS011;13033;50.936;5.334;2023-04-05T04:01:29;23.63;;;12.38;;
25023;SDS011;13033;50.936;5.334;2023-04-05T04:03:55;20.70;;;12.20;;
25023;SDS011;13033;50.936;5.334;2023-04-05T04:06:20;24.17;;;12.80;;
25023;SDS011;13033;50.936;5.334;2023-04-05T04:08:46;25.90;;;12.25;;
25023;SDS011;13033;50.936;5.334;2023-04-05T04:11:12;25.25;;;12.38;;
25023;SDS011;13033;50.936;5.334;2023-04-05T04:13:38;19.88;;;12.25;;
25023;SDS011;13033;50.936;5.334;2023-04-05T04:16:03;21.05;;;11.93;;
25023;SDS011;13033;50.936;5.334;2023-04-05T04:18:29;22.55;;;12.27;;
25023;SDS011;13033;50.936;5.334;2023-04-05T04:20:55;22.33;;;12.50;;
25023;SDS011;13033;50.936;5.334;2023-04-05T04:23:22;23.38;;;13.05;;
25023;SDS011;13033;50.936;5.334;2023-04-05T04:25:49;22.45;;;12.10;;
25023;SDS011;13033;50.936;5.334;2023-04-05T04:28:18;22.42;;;12.18;;
25023;SDS011;13033;50.936;5.334;2023-04-05T04:30:44;19.67;;;11.57;;
25023;SDS011;13033;50.936;5.334;2023-04-05T04:33:10;18.70;;;11.30;;
25023;SDS011;13033;50.936;5.334;2023-04-05T04:35:36;24.23;;;11.65;;
25023;SDS011;13033;50.936;5.334;2023-04-05T04:38:06;17.77;;;10.18;;
25023;SDS011;13033;50.936;5.334;2023-04-05T04:43:08;18.35;;;10.60;;
25023;SDS011;13033;50.936;5.334;2023-04-05T04:45:48;22.15;;;10.52;;
25023;SDS011;13033;50.936;5.334;2023-04-05T04:48:14;21.38;;;11.10;;
25023;SDS011;13033;50.936;5.334;2023-04-05T04:50:41;25.52;;;10.63;;
25023;SDS011;13033;50.936;5.334;2023-04-05T04:53:10;23.40;;;12.32;;
25023;SDS011;13033;50.936;5.334;2023-04-05T04:55:37;24.60;;;12.27;;
25023;SDS011;13033;50.936;5.334;2023-04-05T04:58:06;18.30;;;10.65;;
25023;SDS011;13033;50.936;5.334;2023-04-05T05:00:39;17.13;;;10.15;;
25023;SDS011;13033;50.936;5.334;2023-04-05T05:03:11;21.90;;;10.68;;
25023;SDS011;13033;50.936;5.334;2023-04-05T05:05:47;18.98;;;10.95;;
25023;SDS011;13033;50.936;5.334;2023-04-05T05:08:14;19.85;;;10.80;;
25023;SDS011;13033;50.936;5.334;2023-04-05T05:10:45;20.30;;;10.25;;
25023;SDS011;13033;50.936;5.334;2023-04-05T05:13:14;24.90;;;10.80;;
25023;SDS011;13033;50.936;5.334;2023-04-05T05:15:40;20.70;;;10.75;;
25023;SDS011;13033;50.936;5.334;2023-04-05T05:18:06;19.58;;;10.55;;
25023;SDS011;13033;50.936;5.334;2023-04-05T05:20:32;21.45;;;11.27;;
25023;SDS011;13033;50.936;5.334;2023-04-05T05:22:58;21.50;;;10.75;;
25023;SDS011;13033;50.936;5.334;2023-04-05T05:25:25;23.02;;;11.70;;
25023;SDS011;13033;50.936;5.334;2023-04-05T05:27:51;23.83;;;11.30;;
25023;SDS011;13033;50.936;5.334;2023-04-05T05:30:17;24.38;;;11.10;;
25023;SDS011;13033;50.936;5.334;2023-04-05T05:32:43;24.95;;;12.48;;
25023;SDS011;13033;50.936;5.334;2023-04-05T05:35:08;21.20;;;11.27;;
25023;SDS011;13033;50.936;5.334;2023-04-05T05:37:34;23.65;;;12.73;;
25023;SDS011;13033;50.936;5.334;2023-04-05T05:40:01;22.30;;;11.68;;
25023;SDS011;13033;50.936;5.334;2023-04-05T05:42:29;22.77;;;11.90;;
25023;SDS011;13033;50.936;5.334;2023-04-05T05:44:56;19.88;;;11.70;;
25023;SDS011;13033;50.936;5.334;2023-04-05T05:47:24;20.42;;;11.00;;
25023;SDS011;13033;50.936;5.334;2023-04-05T05:49:50;19.48;;;11.27;;
25023;SDS011;13033;50.936;5.334;2023-04-05T05:52:16;35.53;;;12.95;;
25023;SDS011;13033;50.936;5.334;2023-04-05T05:54:41;31.67;;;12.48;;
25023;SDS011;13033;50.936;5.334;2023-04-05T05:57:07;21.38;;;12.35;;
25023;SDS011;13033;50.936;5.334;2023-04-05T05:59:32;25.30;;;11.60;;
25023;SDS011;13033;50.936;5.334;2023-04-05T06:01:58;27.60;;;12.18;;
25023;SDS011;13033;50.936;5.334;2023-04-05T06:04:24;23.35;;;12.60;;
25023;SDS011;13033;50.936;5.334;2023-04-05T06:06:50;27.48;;;11.93;;
25023;SDS011;13033;50.936;5.334;2023-04-05T06:09:16;25.45;;;12.00;;
25023;SDS011;13033;50.936;5.334;2023-04-05T06:11:42;24.42;;;12.23;;
25023;SDS011;13033;50.936;5.334;2023-04-05T06:14:07;24.58;;;11.98;;
25023;SDS011;13033;50.936;5.334;2023-04-05T06:16:33;28.95;;;12.25;;
25023;SDS011;13033;50.936;5.334;2023-04-05T06:18:59;22.90;;;11.95;;
25023;SDS011;13033;50.936;5.334;2023-04-05T06:21:25;24.33;;;12.45;;
25023;SDS011;13033;50.936;5.334;2023-04-05T06:23:51;23.10;;;12.45;;
25023;SDS011;13033;50.936;5.334;2023-04-05T06:26:21;27.08;;;12.65;;
25023;SDS011;13033;50.936;5.334;2023-04-05T06:28:51;24.02;;;12.57;;
25023;SDS011;13033;50.936;5.334;2023-04-05T06:31:18;25.40;;;12.70;;
25023;SDS011;13033;50.936;5.334;2023-04-05T06:33:45;26.20;;;13.20;;
25023;SDS011;13033;50.936;5.334;2023-04-05T06:36:11;21.88;;;11.80;;
25023;SDS011;13033;50.936;5.334;2023-04-05T06:38:36;31.88;;;13.88;;
25023;SDS011;13033;50.936;5.334;2023-04-05T06:41:02;33.15;;;13.07;;
25023;SDS011;13033;50.936;5.334;2023-04-05T06:43:29;36.38;;;14.23;;
25023;SDS011;13033;50.936;5.334;2023-04-05T06:45:55;27.30;;;14.75;;
25023;SDS011;13033;50.936;5.334;2023-04-05T06:48:21;33.40;;;14.43;;
25023;SDS011;13033;50.936;5.334;2023-04-05T06:50:55;29.27;;;14.20;;
25023;SDS011;13033;50.936;5.334;2023-04-05T06:53:21;40.70;;;15.25;;
25023;SDS011;13033;50.936;5.334;2023-04-05T06:55:50;26.02;;;13.15;;
25023;SDS011;13033;50.936;5.334;2023-04-05T06:58:16;25.85;;;13.50;;
25023;SDS011;13033;50.936;5.334;2023-04-05T07:00:41;36.55;;;15.77;;
25023;SDS011;13033;50.936;5.334;2023-04-05T07:03:07;25.88;;;13.32;;
25023;SDS011;13033;50.936;5.334;2023-04-05T07:05:32;30.38;;;13.18;;
25023;SDS011;13033;50.936;5.334;2023-04-05T07:07:58;27.83;;;13.32;;
25023;SDS011;13033;50.936;5.334;2023-04-05T07:10:24;29.65;;;14.70;;
25023;SDS011;13033;50.936;5.334;2023-04-05T07:12:49;30.15;;;13.25;;
25023;SDS011;13033;50.936;5.334;2023-04-05T07:15:15;23.10;;;13.07;;
25023;SDS011;13033;50.936;5.334;2023-04-05T07:17:41;29.92;;;13.43;;
25023;SDS011;13033;50.936;5.334;2023-04-05T07:20:06;25.33;;;12.90;;
25023;SDS011;13033;50.936;5.334;2023-04-05T07:22:33;29.25;;;13.45;;
25023;SDS011;13033;50.936;5.334;2023-04-05T07:24:59;27.05;;;13.18;;
25023;SDS011;13033;50.936;5.334;2023-04-05T07:27:26;26.70;;;13.90;;
25023;SDS011;13033;50.936;5.334;2023-04-05T07:29:54;32.00;;;13.70;;
25023;SDS011;13033;50.936;5.334;2023-04-05T07:32:20;25.40;;;13.27;;
25023;SDS011;13033;50.936;5.334;2023-04-05T07:34:46;27.10;;;13.82;;
25023;SDS011;13033;50.936;5.334;2023-04-05T07:37:12;24.67;;;13.90;;
25023;SDS011;13033;50.936;5.334;2023-04-05T07:39:37;24.42;;;14.00;;
25023;SDS011;13033;50.936;5.334;2023-04-05T07:42:03;25.45;;;13.05;;
25023;SDS011;13033;50.936;5.334;2023-04-05T07:44:29;27.20;;;13.38;;
25023;SDS011;13033;50.936;5.334;2023-04-05T07:46:55;28.33;;;13.85;;
25023;SDS011;13033;50.936;5.334;2023-04-05T07:49:24;24.42;;;13.55;;
25023;SDS011;13033;50.936;5.334;2023-04-05T07:51:54;29.90;;;14.88;;
25023;SDS011;13033;50.936;5.334;2023-04-05T07:54:23;23.73;;;13.85;;
25023;SDS011;13033;50.936;5.334;2023-04-05T07:56:49;20.42;;;12.85;;
25023;SDS011;13033;50.936;5.334;2023-04-05T07:59:16;23.77;;;13.50;;
25023;SDS011;13033;50.936;5.334;2023-04-05T08:01:41;23.15;;;14.45;;
25023;SDS011;13033;50.936;5.334;2023-04-05T08:04:07;37.22;;;19.90;;
25023;SDS011;13033;50.936;5.334;2023-04-05T08:06:33;47.17;;;27.13;;
25023;SDS011;13033;50.936;5.334;2023-04-05T08:08:58;40.08;;;26.02;;
25023;SDS011;13033;50.936;5.334;2023-04-05T08:11:24;43.03;;;24.60;;
25023;SDS011;13033;50.936;5.334;2023-04-05T08:13:50;30.90;;;20.60;;
25023;SDS011;13033;50.936;5.334;2023-04-05T08:16:18;36.33;;;22.45;;
25023;SDS011;13033;50.936;5.334;2023-04-05T08:18:43;36.28;;;20.33;;
25023;SDS011;13033;50.936;5.334;2023-04-05T08:21:09;34.33;;;21.08;;
25023;SDS011;13033;50.936;5.334;2023-04-05T08:23:35;32.58;;;18.02;;
25023;SDS011;13033;50.936;5.334;2023-04-05T08:26:01;26.45;;;17.90;;
25023;SDS011;13033;50.936;5.334;2023-04-05T08:28:27;23.80;;;15.60;;
25023;SDS011;13033;50.936;5.334;2023-04-05T08:30:53;22.55;;;12.63;;
25023;SDS011;13033;50.936;5.334;2023-04-05T08:33:22;22.30;;;12.35;;
25023;SDS011;13033;50.936;5.334;2023-04-05T08:35:49;25.33;;;15.13;;
25023;SDS011;13033;50.936;5.334;2023-04-05T08:38:15;25.15;;;14.00;;
25023;SDS011;13033;50.936;5.334;2023-04-05T08:40:41;21.67;;;12.40;;
25023;SDS011;13033;50.936;5.334;2023-04-05T08:43:12;14.65;;;9.38;;
25023;SDS011;13033;50.936;5.334;2023-04-05T08:45:57;10.88;;;6.05;;
25023;SDS011;13033;50.936;5.334;2023-04-05T08:48:24;19.42;;;9.95;;
25023;SDS011;13033;50.936;5.334;2023-04-05T08:50:53;20.23;;;10.13;;
25023;SDS011;13033;50.936;5.334;2023-04-05T08:53:19;18.60;;;9.80;;
25023;SDS011;13033;50.936;5.334;2023-04-05T08:55:49;19.85;;;9.90;;
25023;SDS011;13033;50.936;5.334;2023-04-05T08:58:17;15.87;;;9.20;;
25023;SDS011;13033;50.936;5.334;2023-04-05T09:00:51;16.52;;;9.60;;
25023;SDS011;13033;50.936;5.334;2023-04-05T09:03:18;14.70;;;7.72;;
25023;SDS011;13033;50.936;5.334;2023-04-05T09:05:47;17.35;;;8.02;;
25023;SDS011;13033;50.936;5.334;2023-04-05T09:08:15;17.08;;;8.40;;
25023;SDS011;13033;50.936;5.334;2023-04-05T09:10:41;9.20;;;4.20;;
25023;SDS011;13033;50.936;5.334;2023-04-05T09:13:08;9.52;;;5.57;;
25023;SDS011;13033;50.936;5.334;2023-04-05T09:15:35;10.70;;;5.63;;
25023;SDS011;13033;50.936;5.334;2023-04-05T09:18:01;9.77;;;6.25;;
25023;SDS011;13033;50.936;5.334;2023-04-05T09:20:27;9.07;;;5.53;;
25023;SDS011;13033;50.936;5.334;2023-04-05T09:22:54;10.88;;;6.80;;
25023;SDS011;13033;50.936;5.334;2023-04-05T09:25:33;13.85;;;6.63;;
25023;SDS011;13033;50.936;5.334;2023-04-05T09:28:02;10.35;;;6.63;;
25023;SDS011;13033;50.936;5.334;2023-04-05T09:30:28;11.45;;;6.78;;
25023;SDS011;13033;50.936;5.334;2023-04-05T09:32:54;13.00;;;6.50;;
25023;SDS011;13033;50.936;5.334;2023-04-05T09:35:27;13.13;;;6.35;;
25023;SDS011;13033;50.936;5.334;2023-04-05T09:37:58;9.32;;;6.57;;
25023;SDS011;13033;50.936;5.334;2023-04-05T09:40:39;10.60;;;6.05;;
25023;SDS011;13033;50.936;5.334;2023-04-05T09:43:09;9.18;;;5.80;;
25023;SDS011;13033;50.936;5.334;2023-04-05T09:45:41;11.65;;;6.38;;
25023;SDS011;13033;50.936;5.334;2023-04-05T09:50:34;10.35;;;6.07;;
25023;SDS011;13033;50.936;5.334;2023-04-05T09:53:10;9.75;;;6.35;;
25023;SDS011;13033;50.936;5.334;2023-04-05T09:55:40;11.40;;;6.18;;
25023;SDS011;13033;50.936;5.334;2023-04-05T09:58:10;13.93;;;6.50;;
25023;SDS011;13033;50.936;5.334;2023-04-05T10:00:47;11.60;;;6.32;;
25023;SDS011;13033;50.936;5.334;2023-04-05T10:03:17;13.60;;;7.35;;
25023;SDS011;13033;50.936;5.334;2023-04-05T10:05:44;10.93;;;6.97;;
25023;SDS011;13033;50.936;5.334;2023-04-05T10:08:12;12.32;;;6.35;;
25023;SDS011;13033;50.936;5.334;2023-04-05T10:10:44;17.63;;;8.63;;
25023;SDS011;13033;50.936;5.334;2023-04-05T10:13:11;17.35;;;7.60;;
25023;SDS011;13033;50.936;5.334;2023-04-05T10:15:39;12.38;;;7.50;;
25023;SDS011;13033;50.936;5.334;2023-04-05T10:18:13;11.50;;;7.22;;
25023;SDS011;13033;50.936;5.334;2023-04-05T10:20:45;15.32;;;7.70;;
25023;SDS011;13033;50.936;5.334;2023-04-05T10:23:21;10.60;;;6.97;;
25023;SDS011;13033;50.936;5.334;2023-04-05T10:28:18;13.70;;;7.35;;
25023;SDS011;13033;50.936;5.334;2023-04-05T10:36:38;14.10;;;6.68;;
25023;SDS011;13033;50.936;5.334;2023-04-05T10:39:12;11.05;;;6.95;;
25023;SDS011;13033;50.936;5.334;2023-04-05T10:41:46;13.38;;;6.57;;
25023;SDS011;13033;50.936;5.334;2023-04-05T10:44:13;11.70;;;6.30;;
25023;SDS011;13033;50.936;5.334;2023-04-05T10:46:39;13.10;;;6.45;;
25023;SDS011;13033;50.936;5.334;2023-04-05T10:51:36;10.43;;;5.93;;
25023;SDS011;13033;50.936;5.334;2023-04-05T10:54:02;9.73;;;6.45;;
25023;SDS011;13033;50.936;5.334;2023-04-05T10:56:31;10.60;;;6.32;;
25023;SDS011;13033;50.936;5.334;2023-04-05T10:58:57;8.85;;;5.60;;
25023;SDS011;13033;50.936;5.334;2023-04-05T11:01:23;10.43;;;5.30;;
25023;SDS011;13033;50.936;5.334;2023-04-05T11:03:50;8.82;;;5.72;;
25023;SDS011;13033;50.936;5.334;2023-04-05T11:06:17;11.18;;;6.38;;
25023;SDS011;13033;50.936;5.334;2023-04-05T11:08:45;8.95;;;6.03;;
25023;SDS011;13033;50.936;5.334;2023-04-05T11:11:13;11.13;;;6.97;;
25023;SDS011;13033;50.936;5.334;2023-04-05T11:13:46;11.20;;;6.72;;
25023;SDS011;13033;50.936;5.334;2023-04-05T11:16:13;9.43;;;6.10;;
25023;SDS011;13033;50.936;5.334;2023-04-05T11:18:49;10.85;;;6.30;;
25023;SDS011;13033;50.936;5.334;2023-04-05T11:21:19;8.98;;;5.63;;
25023;SDS011;13033;50.936;5.334;2023-04-05T11:23:59;10.32;;;6.57;;
25023;SDS011;13033;50.936;5.334;2023-04-05T11:29:14;10.25;;;6.57;;
25023;SDS011;13033;50.936;5.334;2023-04-05T11:31:59;9.90;;;6.05;;
25023;SDS011;13033;50.936;5.334;2023-04-05T11:34:34;10.77;;;6.57;;
25023;SDS011;13033;50.936;5.334;2023-04-05T11:37:00;10.80;;;6.47;;
25023;SDS011;13033;50.936;5.334;2023-04-05T11:39:26;9.88;;;6.32;;
25023;SDS011;13033;50.936;5.334;2023-04-05T11:42:02;10.32;;;6.50;;
25023;SDS011;13033;50.936;5.334;2023-04-05T11:44:44;15.65;;;7.63;;
25023;SDS011;13033;50.936;5.334;2023-04-05T11:47:12;11.98;;;6.90;;
25023;SDS011;13033;50.936;5.334;2023-04-05T11:49:41;9.85;;;6.80;;
25023;SDS011;13033;50.936;5.334;2023-04-05T11:52:10;9.43;;;6.72;;
25023;SDS011;13033;50.936;5.334;2023-04-05T11:54:41;12.60;;;6.68;;
25023;SDS011;13033;50.936;5.334;2023-04-05T11:57:14;11.68;;;6.55;;
25023;SDS011;13033;50.936;5.334;2023-04-05T11:59:43;10.00;;;6.13;;
25023;SDS011;13033;50.936;5.334;2023-04-05T12:02:08;12.10;;;6.78;;
25023;SDS011;13033;50.936;5.334;2023-04-05T12:04:35;8.93;;;6.40;;
25023;SDS011;13033;50.936;5.334;2023-04-05T12:07:14;10.35;;;6.18;;
25023;SDS011;13033;50.936;5.334;2023-04-05T12:12:34;10.55;;;6.50;;
25023;SDS011;13033;50.936;5.334;2023-04-05T12:15:02;11.50;;;6.35;;
25023;SDS011;13033;50.936;5.334;2023-04-05T12:17:45;10.73;;;6.30;;
25023;SDS011;13033;50.936;5.334;2023-04-05T12:20:15;9.77;;;6.25;;
25023;SDS011;13033;50.936;5.334;2023-04-05T12:22:43;10.07;;;6.40;;
25023;SDS011;13033;50.936;5.334;2023-04-05T12:25:12;8.43;;;6.38;;
25023;SDS011;13033;50.936;5.334;2023-04-05T12:27:39;9.30;;;6.15;;
25023;SDS011;13033;50.936;5.334;2023-04-05T12:30:19;10.15;;;5.97;;
25023;SDS011;13033;50.936;5.334;2023-04-05T12:35:22;14.05;;;8.45;;
25023;SDS011;13033;50.936;5.334;2023-04-05T12:37:57;11.68;;;6.78;;
25023;SDS011;13033;50.936;5.334;2023-04-05T12:40:23;11.07;;;6.43;;
25023;SDS011;13033;50.936;5.334;2023-04-05T12:42:50;11.25;;;6.55;;
25023;SDS011;13033;50.936;5.334;2023-04-05T12:45:15;10.52;;;6.80;;
25023;SDS011;13033;50.936;5.334;2023-04-05T12:47:49;10.57;;;6.78;;
25023;SDS011;13033;50.936;5.334;2023-04-05T12:50:25;13.40;;;7.10;;
25023;SDS011;13033;50.936;5.334;2023-04-05T12:52:55;8.55;;;6.40;;
25023;SDS011;13033;50.936;5.334;2023-04-05T12:55:21;9.57;;;6.22;;
25023;SDS011;13033;50.936;5.334;2023-04-05T12:57:48;10.15;;;6.50;;
25023;SDS011;13033;50.936;5.334;2023-04-05T13:00:17;9.68;;;6.07;;
25023;SDS011;13033;50.936;5.334;2023-04-05T13:02:48;11.43;;;6.93;;
25023;SDS011;13033;50.936;5.334;2023-04-05T13:05:16;15.55;;;7.03;;
25023;SDS011;13033;50.936;5.334;2023-04-05T13:07:42;10.80;;;6.28;;
25023;SDS011;13033;50.936;5.334;2023-04-05T13:10:08;9.27;;;6.72;;
25023;SDS011;13033;50.936;5.334;2023-04-05T13:12:34;11.23;;;6.80;;
25023;SDS011;13033;50.936;5.334;2023-04-05T13:15:00;10.70;;;7.20;;
25023;SDS011;13033;50.936;5.334;2023-04-05T13:17:25;11.68;;;7.10;;
25023;SDS011;13033;50.936;5.334;2023-04-05T13:19:51;14.57;;;7.20;;
25023;SDS011;13033;50.936;5.334;2023-04-05T13:22:16;8.95;;;6.60;;
25023;SDS011;13033;50.936;5.334;2023-04-05T13:24:42;8.80;;;6.60;;
25023;SDS011;13033;50.936;5.334;2023-04-05T13:27:08;10.40;;;7.00;;
25023;SDS011;13033;50.936;5.334;2023-04-05T13:29:33;9.95;;;6.93;;
25023;SDS011;13033;50.936;5.334;2023-04-05T13:31:59;10.60;;;7.28;;
25023;SDS011;13033;50.936;5.334;2023-04-05T13:34:25;11.43;;;7.25;;
25023;SDS011;13033;50.936;5.334;2023-04-05T13:36:51;10.27;;;7.25;;
25023;SDS011;13033;50.936;5.334;2023-04-05T13:39:16;13.65;;;7.47;;
25023;SDS011;13033;50.936;5.334;2023-04-05T13:41:42;10.73;;;6.78;;
25023;SDS011;13033;50.936;5.334;2023-04-05T13:44:08;12.68;;;8.25;;
25023;SDS011;13033;50.936;5.334;2023-04-05T13:46:33;11.20;;;7.72;;
25023;SDS011;13033;50.936;5.334;2023-04-05T13:48:59;13.40;;;8.68;;
25023;SDS011;13033;50.936;5.334;2023-04-05T13:51:25;13.93;;;8.65;;
25023;SDS011;13033;50.936;5.334;2023-04-05T13:53:55;12.40;;;8.25;;
25023;SDS011;13033;50.936;5.334;2023-04-05T13:56:21;10.73;;;8.00;;
25023;SDS011;13033;50.936;5.334;2023-04-05T13:58:47;12.82;;;8.70;;
25023;SDS011;13033;50.936;5.334;2023-04-05T14:01:12;13.45;;;9.18;;
25023;SDS011;13033;50.936;5.334;2023-04-05T14:03:38;14.35;;;7.93;;
25023;SDS011;13033;50.936;5.334;2023-04-05T14:06:04;11.20;;;8.32;;
25023;SDS011;13033;50.936;5.334;2023-04-05T14:08:30;14.00;;;8.65;;
25023;SDS011;13033;50.936;5.334;2023-04-05T14:10:55;13.55;;;8.43;;
25023;SDS011;13033;50.936;5.334;2023-04-05T14:13:21;12.43;;;8.00;;
25023;SDS011;13033;50.936;5.334;2023-04-05T14:15:47;15.02;;;8.65;;
25023;SDS011;13033;50.936;5.334;2023-04-05T14:18:13;15.70;;;8.20;;
25023;SDS011;13033;50.936;5.334;2023-04-05T14:20:39;13.57;;;8.82;;
25023;SDS011;13033;50.936;5.334;2023-04-05T14:23:05;15.65;;;9.32;;
25023;SDS011;13033;50.936;5.334;2023-04-05T14:25:30;12.82;;;8.27;;
25023;SDS011;13033;50.936;5.334;2023-04-05T14:27:56;14.35;;;8.65;;
25023;SDS011;13033;50.936;5.334;2023-04-05T14:30:22;13.35;;;8.63;;
25023;SDS011;13033;50.936;5.334;2023-04-05T14:32:48;11.20;;;8.32;;
25023;SDS011;13033;50.936;5.334;2023-04-05T14:35:13;12.75;;;8.98;;
25023;SDS011;13033;50.936;5.334;2023-04-05T14:37:39;12.57;;;9.05;;
25023;SDS011;13033;50.936;5.334;2023-04-05T14:40:05;11.77;;;8.63;;
25023;SDS011;13033;50.936;5.334;2023-04-05T14:42:31;12.30;;;8.60;;
25023;SDS011;13033;50.936;5.334;2023-04-05T14:44:57;15.98;;;9.75;;
25023;SDS011;13033;50.936;5.334;2023-04-05T14:47:22;13.90;;;9.02;;
25023;SDS011;13033;50.936;5.334;2023-04-05T14:49:48;12.77;;;8.60;;
25023;SDS011;13033;50.936;5.334;2023-04-05T14:52:14;11.95;;;8.85;;
25023;SDS011;13033;50.936;5.334;2023-04-05T14:54:40;14.35;;;8.65;;
25023;SDS011;13033;50.936;5.334;2023-04-05T14:57:05;14.57;;;9.00;;
25023;SDS011;13033;50.936;5.334;2023-04-05T14:59:31;13.18;;;8.65;;